Briefing drone pour Arpajon-sur-cere

Rechercher une autre localisation

Conditions de vol :


Nous sommes le : Mardi 16 août 2022
Il est 00:27 UTC (02:27 LT)

Lever de soleil : 04:26 UTC (06:26 LT)
Coucher de soleil : 19:22 UTC (21:22 LT)

Météo

L'essentiel des conditions de vol

VIGILANCE MÉTÉO FRANCE - Cantal (15)
Pas de vigilances particulieres
CARTE TEMSI
CARTES DES FRONTS
METAR de LFLW
LFLW 160000Z AUTO 12003KT CAVOK 12/11 Q1012

Date d'émission: 16/08/2022
Heure d'émission: 00:00 UTC
Vent: 120° pour 3 KT (6 km/h)
Visibilité horizontale: > 10 km
Plafond : Plafond et visibilité OK (CAVOK)
Température: 12 °C
Point de rosée: 11 °C
Humidité: 94%
Pression (QNH): 1012 hPa
Prévision 24h pour Aurillac (1 km)
Vent : 58° pour 1 KT (5 km/h)
Temperature Maxi: 15 °C
Temperature Min: 15 °C
Humidité : 99%
Condition : Pluie modérée



Warning: count(): Parameter must be an array or an object that implements Countable in /homepages/6/d509196549/htdocs/droneoxygene/briefing.php on line 743
WEBCAM POUR ARPAJON-SUR-CERE

Réglementation

Voler en sécurité

CARTES AERONAUTIQUE 1/500.000
CARTE AZBA (Reseau basse altitude)
CARTES VAC (LFLW)
SUP AIP




Chargement des AIP...
NOTAM (ARPAJON-SUR-CERE + Terrain à proximité / FIR )




Chargement des NOTAMS...
CONTACT PREFECTURE 15


Avertissement : Les données mises à disposition sont indicatives. Oxygène Drone ne pourra être tenu responsable de dégâts causés aux biens et aux personnes.